Buffalo, WY

4:16 PM MDT on April 25, 2017 (GMT -0600)
Johnson County | | Change Station
Active Advisory: Winter Storm Warning Active Notice: Public Information Statement

Elev 4967 ft 44.38 °N, 106.72 °W | Updated 11 hours ago

Overcast
Overcast
34 °F
Feels Like 20 °F
N
32
Wind Variable Wind from NW
Gusts 41 mph

Today
High -- | Low -- °F
--% Chance of Precip.
Yesterday
High -- | Low -- °F
Precip. -- in
Pressure 29.53 in
Visibility 0.2 miles
Clouds
Windchill 20 °F
Dew Point 32 °F
Humidity 92%
Rainfall 0.44 in
Snow Depth Not available.
6:06 AM 8:04 PM
Waning Crescent, 0% visible
METAR KBYG 251053Z AUTO 32028G36KT 1/4SM +SN FG VV003 01/00 A2957 RMK AO2 PK WND 33039/1027 SLP999 P0005 T00110000
Pressure 29.53 in
Visibility 0.2 miles
Clouds
Windchill 20 °F
Dew Point 32 °F
Humidity 92%
Rainfall 0.44 in
Snow Depth Not available.
6:06 AM 8:04 PM
Waning Crescent, 0% visible
METAR KBYG 251053Z AUTO 32028G36KT 1/4SM +SN FG VV003 01/00 A2957 RMK AO2 PK WND 33039/1027 SLP999 P0005 T00110000

Get Your Daily Forecast Email!

Thanks for signing up!

Be on the lookout for a verification email in your inbox.

You'll start receiving severe weather alerts in your inbox..

×

10-Day Weather Forecast

Almanac

Astronomy

Apr. 25, 2017 Rise Set
Actual Time
Civil Twilight
Nautical Twilight
Astronomical Twilight
Moon
Length of Visible Light
Length of Day
Tomorrow will be .
, % of the Moon is Illuminated

Today's Extremes

State Highs State Lows

Community

WunderPhotos

WunderBlog® & News

Nearby

Air Quality

  Air Quality AQ Index Pollutant
Not available.

Snow Depth

Station Depth Elevation

Earthquake Activity

City Distance Mag. Time & Date
Minimum magnitude displayed is 2.5.

Coastal Water Temperatures

Place Temperature

Stations

Nearby Weather Stations

Station Location Temp. Windchill Dew Point Humidity Wind Precip. Elev Updated Type
                   

Watches & Warnings

Winter Storm Warning
Issued: 12:14 PM MDT Apr. 25, 2017 – National Weather Service

... Winter Storm Warning remains in effect until 6 PM MDT this
evening...

* timing... snow, heavy at times, will continue today.

* Total snowfall... 6 to 10 inches with locally higher amounts
near Buffalo.

* Wind... north 25 to 40 mph causing considerable blowing and
drifting snow with visibilities under one quarter mile at
times.

* Main impact... highways will be slick and snow covered,
including interstates 25 and 90. Visibility could be reduced
to under one half mile at times in snow and blowing snow.

Precautionary/preparedness actions...

A Winter Storm Warning means significant amounts of snow, and or
blowing snow are expected or occurring. This could make travel
very hazardous or impossible. If you must travel keep some food,
water, and an extra flashlight in your vehicle in case of an
emergency. Check the latest Road conditions at wyoroad.Info or by
dialing 5 1 1.